Time;durP1;ratioP1;P1;durP2;ratioP2;P2;SDS_P1;SDS_P2;PMS_P1;PMS_P2;Temp;Humidity;BMP_temperature;BMP_pressure;BME280_temperature;BME280_humidity;BME280_pressure;Samples;Min_cycle;Max_cycle;Signal;HPM_P1;HPM_P2
2023/02/04 00:00:21;;;;;;;3.73;3.43;;;;;;;8.96;91.86;99938.13;5011966;28;103177;-71
2023/02/04 00:02:50;;;;;;;4.00;3.10;;;;;;;8.96;92.29;99946.03;5014532;28;102943;-71
2023/02/04 00:05:18;;;;;;;3.20;2.90;;;;;;;9.09;92.08;99930.50;5006284;28;104045;-71
2023/02/04 00:07:46;;;;;;;3.30;3.00;;;;;;;9.06;92.43;99920.09;5010337;28;103440;-71
2023/02/04 00:10:14;;;;;;;3.50;3.17;;;;;;;8.77;93.57;99932.00;5011956;28;103219;-71
2023/02/04 00:12:42;;;;;;;3.30;2.87;;;;;;;8.85;93.69;99939.53;5009181;28;103814;-71
2023/02/04 00:15:10;;;;;;;2.77;2.47;;;;;;;8.87;93.50;99938.53;5015993;28;103623;-71
2023/02/04 00:17:38;;;;;;;3.07;2.63;;;;;;;8.79;93.89;99939.81;5013267;28;103305;-71
2023/02/04 00:20:08;;;;;;;3.10;2.80;;;;;;;8.80;94.25;99938.91;5008668;27;103310;-71
2023/02/04 00:22:36;;;;;;;3.10;2.80;;;;;;;8.79;94.10;99927.50;5010522;28;103087;-71
2023/02/04 00:25:04;;;;;;;3.83;2.50;;;;;;;8.89;93.82;99935.84;5011715;28;104197;-71
2023/02/04 00:27:32;;;;;;;3.47;3.17;;;;;;;8.83;93.33;99944.88;5031350;27;103113;-71
2023/02/04 00:30:00;;;;;;;3.23;2.93;;;;;;;8.90;92.64;99943.66;5013427;28;103087;-70
2023/02/04 00:32:28;;;;;;;3.53;3.13;;;;;;;8.77;93.46;99946.94;5007659;28;103350;-71
2023/02/04 00:34:56;;;;;;;3.20;2.90;;;;;;;8.88;92.13;99945.53;5010900;27;102914;-71
2023/02/04 00:37:25;;;;;;;3.20;2.90;;;;;;;8.77;92.01;99946.94;5002759;28;103341;-71
2023/02/04 00:39:53;;;;;;;3.03;2.67;;;;;;;8.86;91.31;99946.53;5011665;28;105251;-71
2023/02/04 00:42:20;;;;;;;3.77;2.70;;;;;;;8.88;90.78;99945.53;5002612;28;104250;-71
2023/02/04 00:44:48;;;;;;;5.97;3.10;;;;;;;8.96;90.32;99953.06;5014929;28;103796;-72
2023/02/04 00:47:17;;;;;;;3.23;2.60;;;;;;;8.83;89.92;99958.06;5015697;27;103336;-71
2023/02/04 00:49:44;;;;;;;3.10;2.73;;;;;;;8.75;89.93;99962.84;5012875;28;104130;-71
2023/02/04 00:52:12;;;;;;;3.77;2.93;;;;;;;8.77;91.36;99960.13;5008206;27;102722;-71
2023/02/04 00:54:42;;;;;;;4.30;2.57;;;;;;;8.69;91.03;99965.75;5014926;28;102785;-71
2023/02/04 00:57:10;;;;;;;3.80;2.80;;;;;;;8.96;90.43;99968.88;5028476;27;104184;-71
2023/02/04 00:59:38;;;;;;;3.40;3.10;;;;;;;8.80;91.75;99962.63;5009156;28;103226;-71
2023/02/04 01:02:05;;;;;;;3.10;2.80;;;;;;;8.79;91.87;99960.88;5016097;28;102739;-71
2023/02/04 01:04:35;;;;;;;3.37;2.90;;;;;;;8.55;92.88;99974.25;5010181;27;102824;-71
2023/02/04 01:07:03;;;;;;;5.23;3.47;;;;;;;8.72;92.76;99970.88;5015131;27;102947;-71
2023/02/04 01:09:33;;;;;;;4.70;2.87;;;;;;;8.69;93.13;99971.88;5019084;27;104076;-71
2023/02/04 01:12:02;;;;;;;3.87;3.07;;;;;;;8.69;94.13;99987.69;5010144;28;102633;-71
2023/02/04 01:14:30;;;;;;;5.50;3.23;;;;;;;8.90;94.03;99977.09;5014973;28;102720;-72
2023/02/04 01:16:58;;;;;;;4.03;3.20;;;;;;;8.76;94.46;99971.59;5014035;28;104081;-71
2023/02/04 01:19:26;;;;;;;3.83;3.43;;;;;;;8.78;95.70;99961.84;5029682;27;103496;-71
2023/02/04 01:21:54;;;;;;;3.83;3.53;;;;;;;8.70;95.96;99970.91;5015313;28;102681;-71
2023/02/04 01:24:23;;;;;;;5.23;3.80;;;;;;;8.56;96.67;99983.84;5010486;27;103917;-71
2023/02/04 01:27:10;;;;;;;5.33;3.20;;;;;;;8.63;96.84;99979.19;5014465;28;104047;-71
2023/02/04 01:29:38;;;;;;;3.93;2.73;;;;;;;8.51;97.03;99988.47;5013388;27;104163;-71
2023/02/04 01:32:06;;;;;;;4.10;3.10;;;;;;;8.63;96.51;99985.31;5010078;27;102665;-71
2023/02/04 01:34:34;;;;;;;5.50;3.87;;;;;;;8.60;95.72;99982.81;5013101;27;102720;-71
2023/02/04 01:37:02;;;;;;;4.00;3.60;;;;;;;8.62;96.03;99986.22;5015310;28;103210;-71
2023/02/04 01:39:32;;;;;;;3.90;3.50;;;;;;;8.59;95.76;99986.34;5011150;27;103182;-71
2023/02/04 01:42:00;;;;;;;4.20;3.77;;;;;;;8.49;95.55;99982.44;5008589;28;102605;-71
2023/02/04 01:44:30;;;;;;;6.00;3.53;;;;;;;8.69;94.66;99994.72;5009903;28;103464;-71
2023/02/04 01:46:58;;;;;;;4.23;3.23;;;;;;;8.63;95.53;99998.47;5008713;28;103863;-71
2023/02/04 01:49:26;;;;;;;3.40;3.03;;;;;;;8.46;94.54;99997.50;5011492;28;103181;-71
2023/02/04 01:51:57;;;;;;;2.90;2.37;;;;;;;8.45;93.69;99994.00;5006862;28;102607;-71
2023/02/04 01:54:26;;;;;;;3.80;2.60;;;;;;;8.58;92.78;99987.28;5006962;28;102695;-71
2023/02/04 01:56:54;;;;;;;2.27;1.87;;;;;;;8.57;92.87;99993.47;5010564;28;104210;-71
2023/02/04 01:59:25;;;;;;;2.17;1.60;;;;;;;8.71;92.23;99996.34;5006857;28;103055;-71
2023/02/04 02:01:54;;;;;;;2.90;1.73;;;;;;;8.71;91.44;100001.63;5013158;28;102620;-71
2023/02/04 02:04:29;;;;;;;4.73;2.00;;;;;;;8.45;91.84;100003.72;5008765;28;104287;-71
2023/02/04 02:06:59;;;;;;;1.93;1.73;;;;;;;8.47;90.12;100007.97;5011085;28;103635;-71
2023/02/04 02:09:30;;;;;;;3.10;1.70;;;;;;;8.48;89.17;100014.06;5005955;28;103394;-71
2023/02/04 02:11:58;;;;;;;2.53;1.60;;;;;;;8.50;89.27;100023.66;5007611;28;102867;-71
2023/02/04 02:14:26;;;;;;;2.63;1.57;;;;;;;8.47;89.53;100022.94;5010874;28;102651;-71
2023/02/04 02:16:55;;;;;;;3.43;1.83;;;;;;;8.61;89.82;100016.16;5014990;28;103277;-71
2023/02/04 02:19:28;;;;;;;3.10;1.60;;;;;;;8.54;89.59;100012.03;5014242;28;103279;-71
2023/02/04 02:22:02;;;;;;;4.03;2.07;;;;;;;8.56;89.14;100023.38;5006092;28;102838;-71
2023/02/04 02:24:32;;;;;;;2.17;1.40;;;;;;;8.47;90.63;100023.78;5011731;28;103944;-71
2023/02/04 02:27:06;;;;;;;2.97;1.63;;;;;;;8.70;89.40;100030.69;5010810;28;103223;-70
2023/02/04 02:29:34;;;;;;;4.50;1.50;;;;;;;8.35;89.73;100036.59;5007577;28;103266;-71
2023/02/04 02:32:02;;;;;;;3.43;1.80;;;;;;;8.55;90.52;100048.00;5007701;28;102780;-70
2023/02/04 02:34:30;;;;;;;2.73;1.50;;;;;;;8.64;89.59;100047.63;5015705;27;102733;-71
2023/02/04 02:37:00;;;;;;;4.37;1.40;;;;;;;8.74;89.59;100056.84;5010565;27;104257;-71
2023/02/04 02:39:28;;;;;;;2.73;1.27;;;;;;;8.86;89.17;100041.41;5009637;28;102999;-71
2023/02/04 02:41:58;;;;;;;2.13;1.30;;;;;;;8.46;90.02;100037.00;5010356;28;102699;-71
2023/02/04 02:44:29;;;;;;;3.83;1.50;;;;;;;8.32;89.18;100034.09;5013665;28;104195;-70
2023/02/04 02:46:57;;;;;;;5.03;2.03;;;;;;;8.50;88.26;100039.47;5014772;28;105242;-70
2023/02/04 02:49:26;;;;;;;5.90;2.13;;;;;;;8.36;87.59;100040.97;5013555;28;103227;-70
2023/02/04 02:51:54;;;;;;;3.47;1.80;;;;;;;8.24;86.11;100042.28;5015002;28;102923;-70
2023/02/04 02:54:24;;;;;;;5.10;2.10;;;;;;;8.15;85.46;100042.66;5012218;28;103789;-70
2023/02/04 02:56:57;;;;;;;7.17;2.13;;;;;;;8.46;84.85;100053.66;5010119;28;105315;-70
2023/02/04 02:59:26;;;;;;;6.37;2.30;;;;;;;8.58;84.23;100053.16;5011494;28;104131;-71
2023/02/04 03:02:00;;;;;;;7.93;3.07;;;;;;;8.51;83.26;100056.09;5004781;28;102711;-71
2023/02/04 03:04:33;;;;;;;8.03;2.13;;;;;;;8.51;83.46;100056.97;5016918;28;102806;-71
2023/02/04 03:07:04;;;;;;;4.87;2.17;;;;;;;8.45;83.80;100062.47;5008261;28;104123;-70
2023/02/04 03:09:33;;;;;;;5.43;2.17;;;;;;;8.25;85.67;100080.88;5010981;28;103975;-71
2023/02/04 03:12:04;;;;;;;5.20;1.77;;;;;;;8.64;85.15;100078.38;5008844;28;102679;-71
2023/02/04 03:14:33;;;;;;;2.87;1.70;;;;;;;8.60;84.75;100082.91;5011303;28;104024;-71
2023/02/04 03:17:06;;;;;;;3.87;1.70;;;;;;;8.46;85.13;100084.41;5027816;27;103342;-70
2023/02/04 03:19:35;;;;;;;5.23;1.70;;;;;;;8.49;83.94;100087.78;5009843;28;103295;-71
2023/02/04 03:22:05;;;;;;;5.43;2.17;;;;;;;8.33;85.29;100088.50;5006429;28;103950;-70
2023/02/04 03:24:37;;;;;;;5.87;2.03;;;;;;;8.19;85.48;100094.28;5008001;28;104078;-70
2023/02/04 03:27:06;;;;;;;3.93;2.10;;;;;;;8.40;85.01;100100.47;5005969;28;104097;-71
2023/02/04 03:29:34;;;;;;;6.30;1.97;;;;;;;8.46;84.16;100090.53;5007015;28;104326;-71
2023/02/04 03:32:05;;;;;;;6.63;2.30;;;;;;;8.55;84.47;100097.22;5009825;28;103030;-71
2023/02/04 03:34:35;;;;;;;6.50;1.80;;;;;;;8.49;84.82;100098.31;5007790;28;103113;-71
2023/02/04 03:37:03;;;;;;;6.97;1.97;;;;;;;8.46;85.20;100101.09;5012654;28;103825;-70
2023/02/04 03:39:34;;;;;;;5.97;1.93;;;;;;;8.41;85.93;100099.56;5016808;28;103078;-71
2023/02/04 03:42:01;;;;;;;3.77;1.80;;;;;;;8.51;86.41;100104.38;5005404;28;102731;-71
2023/02/04 03:44:31;;;;;;;5.27;1.90;;;;;;;8.56;86.41;100102.41;5016923;28;103905;-71
2023/02/04 03:46:59;;;;;;;4.53;2.10;;;;;;;8.44;87.95;100110.84;5010167;28;103504;-70
2023/02/04 03:49:27;;;;;;;3.63;1.53;;;;;;;8.51;87.68;100117.53;5005168;28;103138;-70
2023/02/04 03:51:54;;;;;;;4.67;1.90;;;;;;;8.51;88.34;100117.53;5008060;28;102584;-71
2023/02/04 03:54:22;;;;;;;3.60;2.00;;;;;;;8.50;88.00;100118.47;5012502;28;102682;-71
2023/02/04 03:56:50;;;;;;;3.77;1.70;;;;;;;8.62;88.17;100114.44;5012062;28;103215;-71
2023/02/04 03:59:18;;;;;;;5.73;2.00;;;;;;;8.31;89.52;100129.84;5009356;28;103280;-71
2023/02/04 04:01:47;;;;;;;4.70;2.00;;;;;;;8.23;89.85;100134.50;5009275;28;102686;-71
2023/02/04 04:04:15;;;;;;;4.97;1.90;;;;;;;8.26;90.44;100129.09;5010344;28;103825;-71
2023/02/04 04:06:42;;;;;;;7.33;2.13;;;;;;;8.22;89.67;100130.16;5012375;28;103341;-71
2023/02/04 04:09:10;;;;;;;5.40;1.87;;;;;;;8.16;90.26;100139.16;5008564;27;103182;-71
2023/02/04 04:11:38;;;;;;;4.77;2.00;;;;;;;8.22;90.04;100140.69;5009301;28;102552;-71
2023/02/04 04:14:08;;;;;;;4.80;1.43;;;;;;;8.39;89.62;100136.50;5005893;28;103632;-71
2023/02/04 04:16:36;;;;;;;6.73;2.20;;;;;;;8.35;89.02;100148.06;5011876;28;104418;-71
2023/02/04 04:19:06;;;;;;;5.30;1.80;;;;;;;8.33;89.70;100142.03;5012386;28;103266;-71
2023/02/04 04:21:33;;;;;;;5.50;1.90;;;;;;;8.26;90.19;100150.16;5011569;28;102669;-71
2023/02/04 04:24:01;;;;;;;3.63;2.07;;;;;;;8.36;89.97;100141.91;5006155;27;104146;-71
2023/02/04 04:26:29;;;;;;;5.90;1.90;;;;;;;8.36;89.78;100151.56;5005195;28;103741;-71
2023/02/04 04:28:57;;;;;;;4.27;1.60;;;;;;;8.41;90.37;100155.72;5011868;28;103297;-71
2023/02/04 04:31:26;;;;;;;8.80;2.90;;;;;;;8.36;90.00;100162.09;5008767;28;102944;-71
2023/02/04 04:33:54;;;;;;;7.43;1.90;;;;;;;8.28;90.42;100172.91;5013987;28;102914;-71
2023/02/04 04:36:24;;;;;;;8.37;2.13;;;;;;;8.31;89.94;100180.69;5008330;28;103749;-70
2023/02/04 04:38:54;;;;;;;6.50;2.67;;;;;;;8.23;90.05;100177.47;5006960;28;103121;-71
2023/02/04 04:41:21;;;;;;;3.33;1.70;;;;;;;8.37;90.24;100177.81;5011387;28;102642;-71
2023/02/04 04:43:49;;;;;;;3.87;1.83;;;;;;;8.48;89.34;100167.72;5012749;28;104546;-71
2023/02/04 04:46:18;;;;;;;6.30;1.90;;;;;;;8.37;89.29;100177.81;5012750;28;104083;-71
2023/02/04 04:48:45;;;;;;;3.10;1.87;;;;;;;8.38;90.02;100182.19;5008978;27;103209;-71
2023/02/04 04:51:16;;;;;;;3.30;2.13;;;;;;;8.23;90.17;100172.22;5009273;28;103660;-71
2023/02/04 04:53:45;;;;;;;5.07;2.07;;;;;;;8.27;89.02;100179.13;5007301;28;103624;-71
2023/02/04 04:56:12;;;;;;;4.87;1.97;;;;;;;8.27;89.72;100183.50;5005528;28;104131;-71
2023/02/04 04:58:40;;;;;;;5.60;2.13;;;;;;;8.22;89.28;100173.16;5006511;28;103271;-71
2023/02/04 05:01:08;;;;;;;3.30;2.20;;;;;;;8.23;89.12;100169.59;5012158;28;102702;-71
2023/02/04 05:03:36;;;;;;;5.17;2.20;;;;;;;8.28;89.21;100175.56;5012968;27;102605;-71
2023/02/04 05:06:04;;;;;;;6.40;2.57;;;;;;;8.12;89.44;100177.06;5009626;28;104215;-71
2023/02/04 05:08:33;;;;;;;2.03;1.63;;;;;;;8.26;89.35;100182.63;5011194;28;103259;-71
2023/02/04 05:11:03;;;;;;;5.03;2.07;;;;;;;8.35;89.03;100173.53;5012582;28;102559;-71
2023/02/04 05:13:31;;;;;;;6.13;2.50;;;;;;;8.19;89.45;100181.19;5011027;28;103758;-71
2023/02/04 05:15:59;;;;;;;3.77;1.87;;;;;;;8.27;89.48;100172.97;5003598;28;103442;-71
2023/02/04 05:18:26;;;;;;;4.90;2.00;;;;;;;8.36;88.70;100173.50;5011151;28;103282;-71
2023/02/04 05:20:54;;;;;;;4.83;1.83;;;;;;;8.33;88.69;100178.03;5011842;28;102657;-71
2023/02/04 05:23:22;;;;;;;5.93;2.00;;;;;;;8.28;89.11;100180.00;5015831;28;102862;-71
2023/02/04 05:25:50;;;;;;;5.83;2.33;;;;;;;8.29;88.94;100186.94;5008462;28;103498;-71
2023/02/04 05:28:19;;;;;;;4.57;2.60;;;;;;;8.20;89.14;100187.31;5014831;28;103240;-71
2023/02/04 05:30:47;;;;;;;5.93;3.07;;;;;;;8.20;88.73;100182.88;5016899;28;102668;-71
2023/02/04 05:33:15;;;;;;;3.77;2.20;;;;;;;8.12;90.02;100191.09;5010922;28;102703;-71
2023/02/04 05:35:43;;;;;;;3.83;2.40;;;;;;;8.09;89.31;100190.34;5013119;28;103822;-71
2023/02/04 05:38:10;;;;;;;6.23;2.60;;;;;;;8.18;89.90;100195.25;5007707;28;103213;-71
2023/02/04 05:40:38;;;;;;;5.63;3.17;;;;;;;8.07;90.39;100197.44;5011271;28;102631;-70
2023/02/04 05:43:06;;;;;;;4.67;2.57;;;;;;;8.05;90.06;100192.25;5007294;28;104033;-71
2023/02/04 05:45:35;;;;;;;6.37;3.30;;;;;;;7.93;90.29;100192.72;5007719;28;103341;-71
2023/02/04 05:48:03;;;;;;;6.43;2.80;;;;;;;8.08;90.38;100183.38;5013077;28;104177;-70
2023/02/04 05:50:31;;;;;;;6.43;3.53;;;;;;;7.95;90.77;100188.25;5004213;28;102658;-70
2023/02/04 05:53:08;;;;;;;8.13;3.00;;;;;;;8.06;90.59;100196.56;5020823;28;103907;-72
2023/02/04 05:55:36;;;;;;;7.83;3.20;;;;;;;8.15;89.91;100195.38;5028184;27;103094;-72
2023/02/04 05:58:04;;;;;;;6.17;2.80;;;;;;;8.17;89.85;100194.38;5016065;28;104047;-72
2023/02/04 06:00:32;;;;;;;7.07;3.27;;;;;;;8.15;89.76;100192.72;5012580;28;102734;-71
2023/02/04 06:03:01;;;;;;;6.37;3.63;;;;;;;8.06;90.21;100206.25;5011940;28;102980;-72
2023/02/04 06:05:29;;;;;;;8.00;3.87;;;;;;;8.04;89.81;100206.31;5011758;27;102994;-71
2023/02/04 06:07:57;;;;;;;9.10;4.30;;;;;;;8.04;89.62;100218.63;5022714;27;103466;-72
2023/02/04 06:10:24;;;;;;;8.73;3.63;;;;;;;8.04;89.96;100218.63;5011697;28;102724;-71
2023/02/04 06:12:52;;;;;;;4.60;3.70;;;;;;;7.92;90.19;100224.34;5012613;28;103477;-71
2023/02/04 06:15:20;;;;;;;5.40;2.93;;;;;;;7.98;90.19;100238.13;5012653;28;104478;-71
2023/02/04 06:17:48;;;;;;;6.37;3.57;;;;;;;8.00;90.22;100232.81;5005992;28;103330;-71
2023/02/04 06:20:17;;;;;;;7.80;3.73;;;;;;;7.95;90.02;100240.00;5010003;27;104323;-74
2023/02/04 06:22:46;;;;;;;6.80;3.20;;;;;;;8.03;89.97;100248.47;5009615;28;103860;-76
2023/02/04 06:25:14;;;;;;;10.03;3.73;;;;;;;7.93;89.92;100247.97;5011021;28;103880;-74
2023/02/04 06:27:42;;;;;;;8.10;4.07;;;;;;;7.92;90.38;100246.25;5015416;28;103592;-72
2023/02/04 06:30:11;;;;;;;7.60;3.20;;;;;;;7.98;89.97;100247.78;5010229;28;102630;-73
2023/02/04 06:32:39;;;;;;;4.23;3.10;;;;;;;7.97;89.99;100259.25;5012147;28;102867;-72
2023/02/04 06:35:07;;;;;;;7.80;3.87;;;;;;;7.95;89.75;100251.41;5004727;28;104012;-73
2023/02/04 06:37:37;;;;;;;7.67;3.93;;;;;;;7.94;90.04;100254.09;5012951;28;103411;-72
2023/02/04 06:40:05;;;;;;;10.70;4.03;;;;;;;7.90;90.08;100252.50;5015410;28;102663;-72
2023/02/04 06:42:33;;;;;;;8.13;4.27;;;;;;;7.85;90.40;100255.31;5009167;28;102891;-72
2023/02/04 06:45:01;;;;;;;9.40;4.47;;;;;;;7.83;90.41;100257.09;5019641;28;103328;-71
2023/02/04 06:47:29;;;;;;;7.07;2.90;;;;;;;7.90;90.70;100263.88;5007452;28;103394;-71
2023/02/04 06:49:57;;;;;;;7.17;3.90;;;;;;;7.97;90.28;100264.53;5015946;28;102889;-71
2023/02/04 06:52:25;;;;;;;7.60;4.47;;;;;;;7.95;90.09;100266.34;5012831;28;104299;-71
2023/02/04 06:54:54;;;;;;;8.73;3.77;;;;;;;7.87;90.42;100273.66;5014152;28;103926;-71
2023/02/04 06:57:22;;;;;;;6.13;3.30;;;;;;;7.87;90.92;100278.91;5009624;28;104250;-71
2023/02/04 06:59:49;;;;;;;11.53;4.50;;;;;;;7.75;90.75;100280.22;5010034;28;103186;-71
2023/02/04 07:02:17;;;;;;;6.83;3.40;;;;;;;7.80;91.13;100280.06;5014636;27;103961;-71
2023/02/04 07:04:45;;;;;;;6.50;3.63;;;;;;;7.92;90.61;100282.22;5009940;28;103270;-71
2023/02/04 07:07:14;;;;;;;8.77;3.17;;;;;;;7.89;90.60;100288.47;5006589;28;103380;-71
2023/02/04 07:09:42;;;;;;;7.83;3.60;;;;;;;7.84;90.27;100297.44;5017352;27;102688;-72
2023/02/04 07:12:11;;;;;;;7.47;3.10;;;;;;;7.96;90.26;100299.66;5009622;28;104811;-71
2023/02/04 07:14:40;;;;;;;10.27;3.87;;;;;;;7.89;90.07;100300.75;5017421;27;104468;-71
2023/02/04 07:17:08;;;;;;;6.53;3.17;;;;;;;7.91;90.19;100305.09;5012647;27;103278;-71
2023/02/04 07:19:36;;;;;;;10.03;4.07;;;;;;;7.92;89.62;100313.81;5014338;28;102842;-71
2023/02/04 07:22:04;;;;;;;9.33;3.30;;;;;;;8.02;89.39;100320.47;5016428;27;103627;-71
2023/02/04 07:24:31;;;;;;;10.90;5.90;;;;;;;7.84;89.01;100329.03;5011719;28;103302;-71
2023/02/04 07:26:59;;;;;;;10.20;4.20;;;;;;;7.92;89.08;100332.25;5010673;27;103328;-71
2023/02/04 07:29:30;;;;;;;11.67;4.97;;;;;;;7.65;89.28;100338.47;5014109;28;102769;-71
2023/02/04 07:31:58;;;;;;;7.23;4.00;;;;;;;7.70;90.47;100333.91;5012638;28;103819;-68
2023/02/04 07:34:26;;;;;;;8.83;3.53;;;;;;;7.50;90.91;100331.97;5014734;27;104348;-70
2023/02/04 07:36:54;;;;;;;12.87;4.40;;;;;;;7.60;89.72;100338.66;5009745;28;103352;-69
2023/02/04 07:39:22;;;;;;;12.67;4.83;;;;;;;7.83;89.10;100329.97;5011901;28;102618;-68
2023/02/04 07:41:49;;;;;;;7.97;4.47;;;;;;;7.59;89.28;100339.56;5016439;28;102838;-68
2023/02/04 07:44:23;;;;;;;9.73;4.27;;;;;;;7.76;87.22;100338.97;5007712;28;104886;-69
2023/02/04 07:46:52;;;;;;;10.70;4.93;;;;;;;7.71;87.22;100340.91;5004440;28;103163;-67
2023/02/04 07:49:20;;;;;;;9.17;3.80;;;;;;;7.71;86.53;100346.16;5008049;28;106468;-69
2023/02/04 07:51:47;;;;;;;10.20;3.80;;;;;;;7.65;86.63;100343.75;5005127;28;102655;-68
2023/02/04 07:54:15;;;;;;;8.97;3.47;;;;;;;7.61;86.56;100360.56;5007318;28;104010;-69
2023/02/04 07:56:45;;;;;;;11.20;4.17;;;;;;;7.42;86.21;100361.16;5005051;28;103207;-69
2023/02/04 07:59:13;;;;;;;13.07;4.17;;;;;;;7.46;86.71;100365.44;5013788;28;103121;-69
2023/02/04 08:01:41;;;;;;;7.97;3.20;;;;;;;7.64;86.38;100368.31;5008799;28;104075;-70
2023/02/04 08:04:10;;;;;;;9.10;3.60;;;;;;;7.88;85.61;100376.25;5011084;28;102979;-70
2023/02/04 08:06:38;;;;;;;8.67;3.23;;;;;;;7.94;85.16;100367.28;5004203;28;104369;-70
2023/02/04 08:09:06;;;;;;;9.50;3.97;;;;;;;7.98;84.46;100377.63;5009013;28;103044;-71
2023/02/04 08:11:36;;;;;;;6.87;2.90;;;;;;;7.98;85.46;100376.78;5016536;27;102727;-70
2023/02/04 08:14:07;;;;;;;14.17;5.23;;;;;;;8.00;84.85;100383.69;4997475;28;104144;-68
2023/02/04 08:16:34;;;;;;;9.50;3.03;;;;;;;8.11;85.10;100378.06;5008280;27;103165;-68
2023/02/04 08:19:02;;;;;;;6.20;2.77;;;;;;;8.29;84.72;100379.19;5011746;28;103040;-68
2023/02/04 08:21:31;;;;;;;8.77;3.70;;;;;;;8.33;83.80;100379.03;5011261;28;102780;-69
2023/02/04 08:23:59;;;;;;;7.03;3.57;;;;;;;8.31;84.43;100380.84;5010358;28;103980;-68
2023/02/04 08:26:27;;;;;;;11.27;3.37;;;;;;;8.39;84.21;100386.72;5004551;28;103342;-68
2023/02/04 08:28:55;;;;;;;12.27;4.27;;;;;;;8.34;84.11;100390.41;5026552;27;102619;-68
2023/02/04 08:31:23;;;;;;;6.07;3.87;;;;;;;8.33;85.16;100397.47;5009539;28;103088;-69
2023/02/04 08:33:53;;;;;;;8.50;3.87;;;;;;;8.40;84.34;100401.59;5006319;28;104560;-72
2023/02/04 08:36:21;;;;;;;8.90;4.50;;;;;;;8.39;84.20;100405.16;5010382;28;103276;-69
2023/02/04 08:38:50;;;;;;;11.60;4.80;;;;;;;8.21;84.79;100410.19;5006363;28;102744;-69
2023/02/04 08:41:18;;;;;;;8.50;3.73;;;;;;;8.28;86.15;100407.28;5011008;28;102712;-70
2023/02/04 08:43:45;;;;;;;11.03;4.37;;;;;;;8.20;86.00;100404.03;5012643;27;103865;-69
2023/02/04 08:46:13;;;;;;;10.33;4.03;;;;;;;8.34;85.38;100407.06;5011279;28;103039;-70
2023/02/04 08:48:41;;;;;;;7.97;4.60;;;;;;;8.22;85.38;100412.78;5010092;28;102712;-70
2023/02/04 08:51:09;;;;;;;12.93;4.90;;;;;;;8.10;86.09;100408.78;5008243;28;102656;-69
2023/02/04 08:53:39;;;;;;;9.93;4.63;;;;;;;8.08;86.54;100415.03;5004303;28;103066;-70
2023/02/04 08:56:09;;;;;;;10.70;4.63;;;;;;;8.08;86.77;100423.75;5007609;28;103504;-68
2023/02/04 08:58:38;;;;;;;13.70;5.00;;;;;;;7.91;87.78;100431.41;5012254;28;102647;-70
2023/02/04 09:01:10;;;;;;;12.10;5.50;;;;;;;8.00;86.53;100431.06;5010911;28;103642;-67
2023/02/04 09:03:38;;;;;;;7.87;4.50;;;;;;;8.21;86.38;100434.75;5005649;28;104286;-68
2023/02/04 09:06:07;;;;;;;5.57;3.27;;;;;;;8.35;85.64;100435.13;5008901;28;103187;-67
2023/02/04 09:08:35;;;;;;;6.73;4.43;;;;;;;8.47;85.31;100429.44;5006117;28;102916;-68
2023/02/04 09:11:03;;;;;;;11.07;4.97;;;;;;;8.17;85.52;100441.00;5008671;28;103600;-68
2023/02/04 09:13:32;;;;;;;11.53;4.80;;;;;;;8.24;85.70;100439.91;5005810;28;103967;-69
2023/02/04 09:16:03;;;;;;;8.53;4.13;;;;;;;8.48;85.89;100441.66;5010176;28;103303;-68
2023/02/04 09:18:31;;;;;;;12.53;4.37;;;;;;;8.57;84.87;100430.81;5014490;28;102598;-68
2023/02/04 09:20:59;;;;;;;10.10;4.33;;;;;;;8.61;84.82;100437.69;5007346;28;103813;-68
2023/02/04 09:23:27;;;;;;;13.47;5.43;;;;;;;9.09;83.08;100447.28;5007643;28;102910;-69
2023/02/04 09:25:55;;;;;;;11.63;5.20;;;;;;;9.11;82.41;100458.63;5011394;27;103835;-69
2023/02/04 09:28:23;;;;;;;15.97;4.73;;;;;;;9.66;82.13;100458.16;5012875;28;102720;-70
2023/02/04 09:30:52;;;;;;;12.43;5.47;;;;;;;9.58;80.44;100454.09;5007689;28;104288;-70
2023/02/04 09:33:20;;;;;;;11.67;4.33;;;;;;;8.71;81.50;100462.78;5006783;28;103268;-75
2023/02/04 09:35:48;;;;;;;9.70;4.23;;;;;;;8.65;82.32;100465.63;5013952;28;103289;-75
2023/02/04 09:38:15;;;;;;;10.57;4.33;;;;;;;8.81;82.27;100462.44;5009739;28;102743;-75
2023/02/04 09:40:47;;;;;;;8.97;3.90;;;;;;;8.96;78.61;100470.63;5020729;28;102659;-75
2023/02/04 09:43:21;;;;;;;9.40;3.40;;;;;;;8.51;77.56;100473.19;5011148;28;103878;-72
2023/02/04 09:45:49;;;;;;;11.77;4.10;;;;;;;9.12;77.31;100476.19;5022072;28;103182;-72
2023/02/04 09:48:21;;;;;;;7.83;3.67;;;;;;;9.00;76.58;100476.63;5007905;28;102831;-73
2023/02/04 09:50:50;;;;;;;13.03;3.53;;;;;;;8.88;74.75;100482.38;5012445;28;102759;-71
2023/02/04 09:53:21;;;;;;;10.53;2.77;;;;;;;9.07;74.88;100484.25;5011417;28;103730;-68
2023/02/04 09:55:50;;;;;;;12.17;3.30;;;;;;;8.65;75.34;100491.97;5013828;28;103387;-71
2023/02/04 09:58:20;;;;;;;10.80;3.20;;;;;;;8.70;74.45;100490.03;5008370;28;103022;-68
2023/02/04 10:00:52;;;;;;;9.10;3.77;;;;;;;9.15;74.47;100484.81;5017869;28;102743;-72
2023/02/04 10:03:22;;;;;;;11.53;3.30;;;;;;;8.84;74.13;100486.06;5012150;28;103348;-71
2023/02/04 10:05:51;;;;;;;9.53;2.73;;;;;;;9.35;74.80;100486.66;5011690;28;103097;-67
2023/02/04 10:08:28;;;;;;;10.13;3.20;;;;;;;9.44;72.51;100478.41;5010201;28;102755;-67
2023/02/04 10:11:00;;;;;;;9.60;3.40;;;;;;;9.18;72.95;100478.56;5008786;28;104341;-68
2023/02/04 10:13:34;;;;;;;9.43;3.63;;;;;;;9.30;74.37;100475.44;5010785;28;103260;-69
2023/02/04 10:16:09;;;;;;;13.93;2.70;;;;;;;8.92;67.41;100478.72;5010155;28;103358;-68
2023/02/04 10:18:39;;;;;;;8.03;2.40;;;;;;;8.51;71.45;100483.72;5009554;28;102533;-68
2023/02/04 10:21:14;;;;;;;8.47;2.40;;;;;;;8.91;69.91;100492.78;5011457;28;104046;-69
2023/02/04 10:23:46;;;;;;;6.03;2.23;;;;;;;8.74;69.30;100491.66;5012822;28;103285;-68
2023/02/04 10:26:15;;;;;;;10.47;2.83;;;;;;;8.41;69.66;100492.00;5011061;28;103398;-68
2023/02/04 10:28:44;;;;;;;12.13;2.80;;;;;;;8.65;69.36;100486.72;5011784;28;102794;-72
2023/02/04 10:31:29;;;;;;;12.10;2.73;;;;;;;8.49;69.80;100480.28;5011244;28;102775;-71
2023/02/04 10:34:06;;;;;;;11.37;3.30;;;;;;;8.90;69.85;100472.66;5008420;28;103286;-72
2023/02/04 10:36:34;;;;;;;8.17;2.40;;;;;;;8.71;70.06;100468.03;5029284;27;103154;-74
2023/02/04 10:39:03;;;;;;;8.80;2.73;;;;;;;8.76;71.71;100464.41;5016920;28;103454;-68
2023/02/04 10:41:32;;;;;;;11.13;3.30;;;;;;;8.70;70.79;100468.94;5012308;28;102738;-69
2023/02/04 10:44:04;;;;;;;9.43;3.30;;;;;;;9.28;70.67;100472.03;5013826;28;103350;-69
2023/02/04 10:46:33;;;;;;;10.40;2.80;;;;;;;10.25;68.89;100468.00;5015941;28;103240;-69
2023/02/04 10:49:03;;;;;;;11.03;3.03;;;;;;;9.20;68.62;100474.09;5014615;28;102786;-68
2023/02/04 10:51:33;;;;;;;13.90;3.00;;;;;;;9.29;67.35;100465.84;5009348;28;104151;-69
2023/02/04 10:56:59;;;;;;;11.60;2.97;;;;;;;8.76;68.64;100464.41;4973213;28;103177;-70
2023/02/04 10:59:28;;;;;;;12.30;3.17;;;;;;;9.05;69.01;100470.28;5000078;28;102746;-69
2023/02/04 11:01:57;;;;;;;8.67;3.30;;;;;;;9.10;69.21;100468.31;5011171;28;103668;-70
2023/02/04 11:04:27;;;;;;;12.70;2.83;;;;;;;8.83;68.87;100469.38;5008543;28;103310;-69
2023/02/04 11:06:56;;;;;;;10.07;2.77;;;;;;;8.55;68.62;100480.06;5004356;28;103297;-69
2023/02/04 11:09:26;;;;;;;9.80;2.93;;;;;;;8.46;68.44;100485.66;5012569;28;102681;-70
2023/02/04 11:11:58;;;;;;;10.73;2.47;;;;;;;8.14;69.94;100493.78;5013029;28;103652;-70
2023/02/04 11:14:29;;;;;;;11.77;2.97;;;;;;;8.36;70.06;100492.19;5013735;28;103288;-70
2023/02/04 11:17:00;;;;;;;10.43;2.87;;;;;;;8.26;70.42;100496.00;5013370;28;103268;-68
2023/02/04 11:19:34;;;;;;;10.80;3.30;;;;;;;8.29;70.55;100487.16;5013273;28;106347;-68
2023/02/04 11:22:21;;;;;;;10.47;2.80;;;;;;;8.39;70.52;100478.03;5010257;28;102747;-67
2023/02/04 11:24:49;;;;;;;9.53;2.30;;;;;;;8.45;69.15;100481.28;5012603;28;104090;-68
2023/02/04 11:27:23;;;;;;;7.73;2.60;;;;;;;8.71;70.29;100472.44;5007757;28;103209;-68
2023/02/04 11:29:51;;;;;;;11.97;2.93;;;;;;;9.24;69.88;100473.03;5008994;28;102655;-67
2023/02/04 11:32:32;;;;;;;8.43;3.00;;;;;;;8.54;68.87;100472.19;5012845;28;102737;-67
2023/02/04 11:35:23;;;;;;;9.10;2.90;;;;;;;8.63;67.30;100480.66;5006533;28;103392;-69